createdAt,value
2022-08-12T00:02:07.205Z,79.41
2022-08-12T00:04:31.793Z,79.23
2022-08-12T00:06:53.294Z,79.47
2022-08-12T00:09:15.449Z,78.63
2022-08-12T00:11:37.372Z,77.45
2022-08-12T00:13:58.724Z,77.65
2022-08-12T00:16:20.698Z,77.32
2022-08-12T00:18:42.059Z,77.10
2022-08-12T00:21:03.509Z,76.41
2022-08-12T00:23:25.249Z,75.57
2022-08-12T00:26:20.655Z,74.45
2022-08-12T00:28:39.230Z,73.74
2022-08-12T00:31:00.547Z,73.50
2022-08-12T00:33:22.203Z,73.50
2022-08-12T00:35:42.969Z,73.47
2022-08-12T00:38:05.183Z,73.55
2022-08-12T00:40:29.069Z,74.07
2022-08-12T00:42:33.079Z,73.98
2022-08-12T00:44:35.898Z,72.92
2022-08-12T00:46:49.697Z,73.73
2022-08-12T00:48:52.701Z,73.53
2022-08-12T00:50:56.916Z,73.37
2022-08-12T00:53:02.787Z,73.38
2022-08-12T00:55:06.043Z,73.54
2022-08-12T00:57:15.028Z,74.20
2022-08-12T00:59:17.652Z,74.87
2022-08-12T01:01:22.083Z,75.70
2022-08-12T01:03:26.258Z,76.85
2022-08-12T01:05:50.336Z,77.58
2022-08-12T01:08:12.441Z,77.29
2022-08-12T01:10:33.474Z,77.71
2022-08-12T01:12:39.222Z,77.77
2022-08-12T01:14:43.998Z,77.38
2022-08-12T01:16:48.838Z,77.38
2022-08-12T01:18:55.406Z,77.38
2022-08-12T01:21:19.680Z,77.44
2022-08-12T01:23:47.778Z,78.06
2022-08-12T01:25:55.677Z,78.03
2022-08-12T01:28:02.059Z,78.81
2022-08-12T01:30:07.955Z,79.27
2022-08-12T01:32:12.947Z,79.60
2022-08-12T01:34:36.642Z,79.54
2022-08-12T01:36:46.864Z,79.89
2022-08-12T01:38:51.335Z,80.41
2022-08-12T01:40:59.286Z,80.88
2022-08-12T01:43:17.178Z,81.63
2022-08-12T01:45:24.994Z,82.23
2022-08-12T01:47:47.365Z,83.07
2022-08-12T01:50:05.568Z,83.06
2022-08-12T01:52:22.461Z,83.13
2022-08-12T01:54:27.796Z,82.85
2022-08-12T01:56:42.002Z,82.84
2022-08-12T01:59:04.923Z,81.42
2022-08-12T02:01:12.103Z,80.13
2022-08-12T02:03:26.590Z,79.30
2022-08-12T02:06:08.669Z,78.48
2022-08-12T02:08:48.743Z,78.44
2022-08-12T02:11:19.369Z,78.66
2022-08-12T02:13:49.770Z,78.33
2022-08-12T02:16:28.263Z,77.37
2022-08-12T02:19:03.565Z,77.53
2022-08-12T02:21:47.910Z,77.41
2022-08-12T02:23:51.075Z,77.38
2022-08-12T02:25:57.645Z,77.19
2022-08-12T02:28:06.102Z,76.99
2022-08-12T02:30:14.650Z,76.78
2022-08-12T02:32:17.404Z,76.40
2022-08-12T02:34:22.096Z,76.18
2022-08-12T02:36:25.461Z,75.80
2022-08-12T02:38:29.286Z,75.85
2022-08-12T02:40:35.277Z,75.51
2022-08-12T02:42:44.569Z,74.85
2022-08-12T02:44:51.855Z,74.83
2022-08-12T02:46:57.160Z,74.82
2022-08-12T02:49:10.045Z,74.67
2022-08-12T02:51:23.746Z,73.80
2022-08-12T02:53:28.166Z,73.57
2022-08-12T02:55:35.249Z,72.69
2022-08-12T02:57:39.859Z,71.21
2022-08-12T02:59:43.506Z,71.15
2022-08-12T03:01:48.725Z,71.03
2022-08-12T03:03:55.830Z,70.26
2022-08-12T03:06:13.492Z,70.32
2022-08-12T03:08:32.389Z,69.88
2022-08-12T03:10:42.539Z,68.86
2022-08-12T03:12:51.023Z,68.21
2022-08-12T03:14:56.170Z,68.32
2022-08-12T03:17:11.605Z,67.65
2022-08-12T03:19:14.323Z,67.56
2022-08-12T03:21:52.226Z,67.64
2022-08-12T03:23:42.687Z,66.97
2022-08-12T03:25:45.463Z,66.89
2022-08-12T03:27:51.884Z,66.35
2022-08-12T03:29:57.407Z,66.23
2022-08-12T03:32:00.797Z,65.96
2022-08-12T03:34:09.938Z,65.53
2022-08-12T03:36:18.427Z,65.39
2022-08-12T03:38:27.673Z,65.18
2022-08-12T03:41:01.102Z,64.24
2022-08-12T03:43:25.368Z,64.27
2022-08-12T03:45:51.847Z,64.12
2022-08-12T03:48:19.116Z,64.42
2022-08-12T03:50:40.830Z,64.36
2022-08-12T03:53:02.229Z,63.90
2022-08-12T03:55:24.440Z,63.72
2022-08-12T03:57:46.085Z,63.80
2022-08-12T04:00:10.031Z,63.40
2022-08-12T04:02:17.025Z,63.36
2022-08-12T04:04:23.768Z,62.60
2022-08-12T04:06:34.942Z,61.75
2022-08-12T04:08:39.612Z,61.60
2022-08-12T04:11:00.914Z,61.62
2022-08-12T04:13:17.043Z,61.60
2022-08-12T04:15:20.157Z,61.10
2022-08-12T04:17:23.445Z,60.49
2022-08-12T04:19:26.867Z,60.72
2022-08-12T04:21:32.146Z,60.62
2022-08-12T04:23:35.884Z,59.97
2022-08-12T04:25:40.320Z,59.82
2022-08-12T04:27:46.364Z,59.71
2022-08-12T04:30:29.750Z,60.32
2022-08-12T04:32:12.488Z,60.57
2022-08-12T04:34:16.105Z,60.03
2022-08-12T04:36:18.848Z,59.99
2022-08-12T04:38:24.384Z,59.28
2022-08-12T04:40:30.548Z,58.97
2022-08-12T04:42:33.222Z,58.89
2022-08-12T04:44:35.879Z,58.73
2022-08-12T04:46:39.243Z,58.67
2022-08-12T04:48:42.145Z,58.04
2022-08-12T04:50:45.823Z,57.60
2022-08-12T04:52:49.622Z,57.44
2022-08-12T04:54:52.533Z,56.75
2022-08-12T04:57:04.526Z,56.79
2022-08-12T04:59:08.090Z,56.46
2022-08-12T05:01:11.112Z,55.56
2022-08-12T05:03:14.442Z,54.52
2022-08-12T05:05:25.050Z,54.63
2022-08-12T05:07:27.942Z,54.19
2022-08-12T05:10:00.425Z,53.33
2022-08-12T05:11:54.170Z,53.45
2022-08-12T05:14:00.568Z,53.23
2022-08-12T05:16:09.285Z,53.01
2022-08-12T05:18:20.357Z,53.10
2022-08-12T05:20:26.286Z,52.54
2022-08-12T05:22:28.970Z,52.68
2022-08-12T05:24:31.610Z,52.02
2022-08-12T05:26:34.268Z,51.44
2022-08-12T05:28:37.124Z,51.78
2022-08-12T05:30:41.619Z,50.90
2022-08-12T05:32:44.191Z,51.44
2022-08-12T05:34:50.816Z,50.87
2022-08-12T05:36:53.505Z,51.16
2022-08-12T05:38:59.629Z,51.29
2022-08-12T05:41:05.135Z,51.44
2022-08-12T05:43:08.362Z,52.52
2022-08-12T05:45:11.194Z,51.13
2022-08-12T05:47:14.852Z,51.25
2022-08-12T05:49:17.562Z,51.48
2022-08-12T05:51:24.675Z,51.13
2022-08-12T05:53:32.744Z,51.04
2022-08-12T05:55:36.664Z,50.44
2022-08-12T05:57:39.403Z,51.08
2022-08-12T05:59:42.311Z,50.96
2022-08-12T06:02:10.418Z,51.50
2022-08-12T06:04:10.742Z,51.77
2022-08-12T06:06:17.294Z,51.36
2022-08-12T06:08:20.413Z,51.43
2022-08-12T06:10:32.308Z,51.74
2022-08-12T06:12:36.113Z,51.44
2022-08-12T06:14:39.418Z,50.52
2022-08-12T06:16:44.177Z,50.75
2022-08-12T06:18:47.466Z,51.62
2022-08-12T06:20:50.076Z,51.05
2022-08-12T06:22:56.814Z,51.18
2022-08-12T06:25:00.678Z,51.97
2022-08-12T06:27:03.612Z,50.96
2022-08-12T06:29:06.234Z,51.24
2022-08-12T06:31:26.702Z,50.70
2022-08-12T06:33:55.038Z,50.60
2022-08-12T06:35:58.624Z,49.74
2022-08-12T06:38:03.859Z,49.33
2022-08-12T06:40:11.293Z,48.10
2022-08-12T06:42:33.559Z,48.51
2022-08-12T06:44:36.514Z,48.81
2022-08-12T06:46:39.679Z,48.89
2022-08-12T06:48:45.167Z,48.65
2022-08-12T06:50:49.508Z,48.07
2022-08-12T06:52:52.370Z,48.25
2022-08-12T06:54:55.952Z,48.24
2022-08-12T06:58:08.294Z,47.66
2022-08-12T06:59:21.808Z,47.68
2022-08-12T07:01:25.602Z,47.85
2022-08-12T07:03:28.988Z,47.07
2022-08-12T07:05:32.058Z,46.81
2022-08-12T07:07:34.610Z,47.14
2022-08-12T07:09:58.068Z,46.99
2022-08-12T07:12:02.676Z,46.88
2022-08-12T07:14:12.366Z,46.13
2022-08-12T07:16:18.029Z,46.41
2022-08-12T07:18:20.690Z,46.99
2022-08-12T07:20:50.258Z,47.55
2022-08-12T07:22:46.236Z,46.82
2022-08-12T07:25:11.163Z,45.89
2022-08-12T07:27:14.599Z,46.10
2022-08-12T07:29:17.452Z,45.90
2022-08-12T07:31:20.093Z,44.80
2022-08-12T07:33:25.626Z,44.28
2022-08-12T07:35:33.207Z,44.87
2022-08-12T07:37:42.240Z,45.50
2022-08-12T07:39:50.763Z,43.38
2022-08-12T07:42:04.788Z,43.13
2022-08-12T07:44:09.416Z,42.79
2022-08-12T07:46:15.371Z,43.38
2022-08-12T07:48:18.043Z,44.54
2022-08-12T07:50:23.738Z,44.62
2022-08-12T07:52:26.691Z,45.38
2022-08-12T07:54:29.253Z,45.66
2022-08-12T07:56:32.542Z,45.06
2022-08-12T07:58:38.566Z,45.43
2022-08-12T08:00:41.123Z,45.06
2022-08-12T08:02:43.810Z,44.63
2022-08-12T08:04:58.330Z,44.49
2022-08-12T08:07:02.004Z,44.28
2022-08-12T08:09:05.704Z,44.18
2022-08-12T08:11:27.103Z,43.78
2022-08-12T08:13:29.670Z,43.79
2022-08-12T08:16:01.765Z,42.42
2022-08-12T08:18:04.711Z,41.89
2022-08-12T08:20:10.713Z,41.92
2022-08-12T08:22:13.488Z,41.83
2022-08-12T08:24:16.228Z,41.17
2022-08-12T08:26:20.834Z,40.09
2022-08-12T08:28:23.413Z,39.63
2022-08-12T08:30:27.579Z,40.21
2022-08-12T08:32:30.066Z,41.23
2022-08-12T08:34:53.960Z,41.87
2022-08-12T08:36:58.038Z,41.31
2022-08-12T08:39:00.554Z,41.26
2022-08-12T08:42:15.683Z,40.88
2022-08-12T08:43:45.788Z,39.98
2022-08-12T08:45:49.264Z,39.47
2022-08-12T08:47:52.009Z,38.97
2022-08-12T08:49:57.650Z,39.18
2022-08-12T08:52:00.280Z,40.24
2022-08-12T08:54:03.137Z,40.00
2022-08-12T08:56:05.936Z,40.67
2022-08-12T08:58:09.115Z,40.64
2022-08-12T09:00:17.507Z,40.10
2022-08-12T09:02:20.072Z,38.69
2022-08-12T09:06:53.369Z,40.17
2022-08-12T09:08:56.924Z,40.40
2022-08-12T09:12:06.451Z,40.09
2022-08-12T09:14:12.384Z,40.45
2022-08-12T09:16:07.359Z,40.85
2022-08-12T09:18:12.058Z,40.59
2022-08-12T09:20:16.891Z,41.00
2022-08-12T09:22:21.024Z,39.99
2022-08-12T09:24:27.662Z,39.81
2022-08-12T09:26:31.491Z,39.84
2022-08-12T09:28:37.090Z,40.24
2022-08-12T09:30:44.870Z,39.75
2022-08-12T09:33:03.972Z,39.48
2022-08-12T09:35:22.494Z,39.65
2022-08-12T09:37:55.375Z,39.62
2022-08-12T09:40:06.164Z,39.76
2022-08-12T09:42:56.878Z,40.34
2022-08-12T09:45:17.785Z,39.41
2022-08-12T09:47:29.231Z,38.91
2022-08-12T09:49:37.162Z,38.93
2022-08-12T09:51:47.717Z,38.40
2022-08-12T09:54:08.425Z,37.95
2022-08-12T09:57:00.569Z,37.74
2022-08-12T09:58:58.445Z,38.56
2022-08-12T10:01:06.302Z,38.84
2022-08-12T10:03:31.796Z,38.55
2022-08-12T10:06:19.437Z,38.29
2022-08-12T10:08:10.659Z,38.55
2022-08-12T10:10:22.311Z,39.11
2022-08-12T10:13:07.257Z,39.18
2022-08-12T10:15:07.299Z,39.47
2022-08-12T10:17:10.028Z,39.92
2022-08-12T10:19:17.675Z,39.84
2022-08-12T10:21:23.131Z,40.19
2022-08-12T10:23:39.454Z,39.84
2022-08-12T10:26:18.523Z,39.52
2022-08-12T10:29:01.842Z,39.06
2022-08-12T10:31:06.188Z,38.51
2022-08-12T10:33:17.971Z,38.71
2022-08-12T10:35:22.041Z,39.10
2022-08-12T10:38:33.437Z,39.09
2022-08-12T10:40:03.200Z,39.19
2022-08-12T10:42:31.181Z,39.43
2022-08-12T10:44:36.786Z,38.90
2022-08-12T10:46:39.962Z,38.94
2022-08-12T10:48:58.445Z,38.39
2022-08-12T10:52:04.804Z,38.36
2022-08-12T10:53:45.944Z,38.67
2022-08-12T10:55:56.259Z,38.36
2022-08-12T10:58:27.577Z,38.42
2022-08-12T11:00:34.662Z,37.82
2022-08-12T11:07:03.402Z,37.99
2022-08-12T11:08:37.188Z,37.87
2022-08-12T11:10:01.687Z,38.71
2022-08-12T11:12:35.748Z,37.83
2022-08-12T11:14:49.922Z,37.46
2022-08-12T11:17:34.149Z,37.40
2022-08-12T11:19:22.500Z,37.58
2022-08-12T11:21:57.513Z,38.17
2022-08-12T11:23:53.693Z,37.53
2022-08-12T11:26:00.492Z,36.45
2022-08-12T11:28:08.338Z,36.53
2022-08-12T11:30:31.101Z,36.31
2022-08-12T11:32:39.169Z,36.65
2022-08-12T11:34:53.607Z,36.12
2022-08-12T11:37:01.218Z,36.58
2022-08-12T11:39:07.502Z,35.99
2022-08-12T11:41:10.277Z,35.09
2022-08-12T11:43:19.709Z,34.80
2022-08-12T11:45:23.106Z,35.00
2022-08-12T11:47:25.894Z,34.98
2022-08-12T11:49:32.316Z,34.20
2022-08-12T11:51:36.369Z,33.60
2022-08-12T11:53:57.169Z,34.16
2022-08-12T11:56:05.059Z,33.65
2022-08-12T11:58:44.144Z,33.21
2022-08-12T12:02:53.996Z,33.79
2022-08-12T12:04:57.113Z,32.44
2022-08-12T12:07:06.675Z,33.11
2022-08-12T12:09:09.523Z,32.59
2022-08-12T12:11:12.196Z,32.04
2022-08-12T12:14:05.326Z,32.25
2022-08-12T12:15:41.229Z,32.26
2022-08-12T12:17:43.918Z,31.94
2022-08-12T12:19:46.609Z,31.72
2022-08-12T12:21:49.717Z,31.56
2022-08-12T12:23:52.347Z,31.62
2022-08-12T12:26:08.119Z,32.12
2022-08-12T12:28:36.931Z,32.44
2022-08-12T12:30:37.814Z,32.47
2022-08-12T12:32:40.532Z,32.00
2022-08-12T12:35:13.872Z,31.75
2022-08-12T12:37:05.983Z,31.72
2022-08-12T12:39:10.431Z,30.93
2022-08-12T12:41:16.463Z,30.82
2022-08-12T12:43:28.606Z,30.66
2022-08-12T12:45:44.175Z,30.77
2022-08-12T12:47:59.086Z,30.82
2022-08-12T12:50:01.726Z,30.58
2022-08-12T12:52:19.250Z,30.04
2022-08-12T12:54:28.971Z,29.84
2022-08-12T12:56:34.421Z,29.71
2022-08-12T12:58:37.950Z,30.03
2022-08-12T13:00:50.997Z,30.51
2022-08-12T13:02:58.271Z,30.50
2022-08-12T13:05:01.385Z,30.58
2022-08-12T13:07:06.847Z,31.03
2022-08-12T13:09:13.261Z,31.03
2022-08-12T13:11:16.012Z,30.84
2022-08-12T13:14:07.845Z,29.94
2022-08-12T13:15:45.360Z,30.26
2022-08-12T13:18:02.436Z,29.90
2022-08-12T13:20:11.412Z,29.44
2022-08-12T13:22:33.984Z,30.16
2022-08-12T13:24:39.705Z,30.15
2022-08-12T13:26:42.630Z,30.12
2022-08-12T13:28:53.122Z,29.88
2022-08-12T13:31:00.018Z,29.36
2022-08-12T13:33:02.987Z,29.26
2022-08-12T13:35:19.757Z,28.82
2022-08-12T13:37:54.475Z,28.55
2022-08-12T13:39:59.122Z,28.07
2022-08-12T13:42:14.358Z,28.35
2022-08-12T13:44:20.123Z,28.17
2022-08-12T13:46:25.833Z,27.36
2022-08-12T13:48:30.092Z,26.98
2022-08-12T13:50:36.699Z,26.97
2022-08-12T13:52:40.278Z,26.68
2022-08-12T13:54:56.359Z,26.97
2022-08-12T13:56:59.285Z,26.88
2022-08-12T13:59:08.534Z,27.41
2022-08-12T14:01:11.466Z,27.15
2022-08-12T14:03:16.389Z,26.86
2022-08-12T14:05:37.463Z,27.00
2022-08-12T14:07:54.107Z,27.25
2022-08-12T14:10:16.174Z,27.29
2022-08-12T14:12:21.750Z,27.80
2022-08-12T14:14:31.259Z,27.77
2022-08-12T14:16:49.131Z,27.73
2022-08-12T14:18:54.739Z,27.52
2022-08-12T14:21:04.364Z,27.08
2022-08-12T14:23:16.508Z,27.56
2022-08-12T14:25:30.603Z,27.14
2022-08-12T14:28:02.523Z,26.33
2022-08-12T14:30:05.495Z,26.54
2022-08-12T14:32:18.131Z,26.63
2022-08-12T14:34:20.742Z,26.24
2022-08-12T14:36:30.804Z,26.10
2022-08-12T14:38:42.585Z,27.05
2022-08-12T14:40:50.803Z,26.92
2022-08-12T14:42:54.109Z,26.05
2022-08-12T14:45:01.033Z,26.05
2022-08-12T14:47:07.989Z,26.12
2022-08-12T14:50:33.378Z,25.97
2022-08-12T14:52:59.078Z,26.55
2022-08-12T14:56:08.921Z,26.87
2022-08-12T14:59:23.393Z,25.84
2022-08-12T15:01:42.672Z,26.96
2022-08-12T15:03:58.045Z,27.32
2022-08-12T15:06:44.717Z,27.36
2022-08-12T15:08:33.621Z,27.13
2022-08-12T15:10:37.937Z,27.66
2022-08-12T15:12:40.907Z,27.35
2022-08-12T15:14:45.618Z,27.46
2022-08-12T15:16:48.902Z,28.02
2022-08-12T15:18:55.396Z,29.22
2022-08-12T15:21:04.969Z,29.89
2022-08-12T15:23:17.438Z,30.43
2022-08-12T15:25:20.945Z,31.51
2022-08-12T15:27:31.693Z,32.46
2022-08-12T15:29:46.063Z,32.81
2022-08-12T15:32:00.631Z,33.57
2022-08-12T15:34:07.980Z,33.91
2022-08-12T15:36:19.177Z,34.07
2022-08-12T15:38:31.579Z,35.20
2022-08-12T15:40:38.571Z,35.42
2022-08-12T15:42:51.087Z,35.63
2022-08-12T15:44:54.701Z,36.43
2022-08-12T15:46:58.953Z,36.27
2022-08-12T15:49:01.477Z,36.68
2022-08-12T15:51:04.501Z,36.79
2022-08-12T15:53:14.545Z,37.13
2022-08-12T15:55:20.254Z,37.71
2022-08-12T15:57:24.676Z,37.98
2022-08-12T15:59:51.198Z,38.60
2022-08-12T16:01:50.713Z,38.73
2022-08-12T16:04:00.816Z,39.12
2022-08-12T16:06:11.322Z,39.50
2022-08-12T16:08:24.018Z,40.01
2022-08-12T16:10:31.175Z,40.38
2022-08-12T16:12:39.817Z,40.59
2022-08-12T16:14:42.407Z,40.70
2022-08-12T16:16:48.652Z,40.89
2022-08-12T16:18:59.635Z,41.34
2022-08-12T16:21:09.128Z,42.03
2022-08-12T16:23:35.868Z,42.65
2022-08-12T16:26:02.857Z,43.22
2022-08-12T16:28:03.519Z,43.55
2022-08-12T16:30:06.704Z,43.60
2022-08-12T16:32:09.435Z,44.21
2022-08-12T16:34:38.431Z,44.64
2022-08-12T16:36:43.090Z,44.88
2022-08-12T16:38:46.125Z,45.07
2022-08-12T16:40:48.800Z,45.28
2022-08-12T16:43:01.576Z,45.77
2022-08-12T16:45:04.910Z,46.11
2022-08-12T16:47:10.849Z,46.20
2022-08-12T16:49:19.472Z,46.41
2022-08-12T16:51:27.086Z,46.50
2022-08-12T16:53:43.918Z,46.49
2022-08-12T16:55:51.988Z,46.28
2022-08-12T16:57:56.498Z,46.27
2022-08-12T16:59:59.170Z,46.39
2022-08-12T17:02:02.720Z,45.38
2022-08-12T17:04:09.480Z,45.04
2022-08-12T17:06:13.142Z,44.77
2022-08-12T17:08:29.213Z,44.79
2022-08-12T17:10:36.715Z,44.89
2022-08-12T17:12:40.075Z,45.03
2022-08-12T17:14:42.892Z,45.30
2022-08-12T17:16:52.159Z,45.32
2022-08-12T17:18:57.465Z,45.39
2022-08-12T17:21:08.173Z,45.51
2022-08-12T17:23:19.614Z,45.57
2022-08-12T17:25:22.945Z,45.39
2022-08-12T17:27:30.894Z,45.49
2022-08-12T17:30:01.475Z,45.55
2022-08-12T17:32:05.318Z,45.41
2022-08-12T17:34:17.269Z,45.68
2022-08-12T17:36:23.841Z,45.64
2022-08-12T17:38:29.653Z,45.73
2022-08-12T17:40:37.049Z,45.97
2022-08-12T17:42:42.482Z,45.99
2022-08-12T17:44:45.118Z,46.24
2022-08-12T17:46:53.588Z,46.52
2022-08-12T17:48:57.836Z,46.73
2022-08-12T17:51:02.932Z,46.98
2022-08-12T17:53:08.074Z,47.07
2022-08-12T17:55:40.527Z,47.66
2022-08-12T17:57:41.661Z,48.29
2022-08-12T17:59:47.815Z,48.35
2022-08-12T18:01:51.783Z,48.07
2022-08-12T18:04:05.321Z,48.56
2022-08-12T18:06:27.982Z,50.05
2022-08-12T18:08:33.553Z,50.49
2022-08-12T18:10:55.667Z,50.50
2022-08-12T18:13:02.418Z,51.16
2022-08-12T18:15:09.071Z,51.49
2022-08-12T18:17:14.099Z,52.02
2022-08-12T18:19:17.711Z,52.44
2022-08-12T18:21:20.300Z,53.23
2022-08-12T18:23:26.005Z,53.76
2022-08-12T18:26:15.768Z,54.30
2022-08-12T18:28:16.695Z,55.37
2022-08-12T18:30:29.942Z,55.17
2022-08-12T18:32:53.893Z,54.33
2022-08-12T18:35:10.844Z,54.43
2022-08-12T18:37:29.449Z,54.90
2022-08-12T18:39:56.692Z,55.28
2022-08-12T18:41:59.943Z,55.33
2022-08-12T18:44:09.498Z,55.79
2022-08-12T18:46:13.659Z,56.19
2022-08-12T18:48:16.789Z,56.23
2022-08-12T18:50:19.386Z,55.68
2022-08-12T18:52:31.072Z,56.02
2022-08-12T18:54:36.189Z,56.63
2022-08-12T18:56:39.726Z,57.33
2022-08-12T18:58:59.584Z,57.19
2022-08-12T19:01:05.562Z,57.44
2022-08-12T19:03:23.556Z,57.49
2022-08-12T19:05:53.367Z,57.63
2022-08-12T19:08:01.688Z,57.60
2022-08-12T19:10:07.799Z,58.30
2022-08-12T19:12:30.634Z,58.59
2022-08-12T19:14:35.683Z,58.55
2022-08-12T19:16:40.102Z,58.98
2022-08-12T19:18:44.675Z,59.13
2022-08-12T19:22:59.877Z,60.09
2022-08-12T19:25:59.336Z,60.68
2022-08-12T19:27:50.982Z,60.52
2022-08-12T19:30:06.469Z,60.31
2022-08-12T19:32:14.412Z,60.33
2022-08-12T19:34:42.037Z,60.57
2022-08-12T19:36:43.667Z,60.14
2022-08-12T19:38:56.423Z,59.55
2022-08-12T19:41:03.997Z,58.91
2022-08-12T19:43:20.703Z,58.96
2022-08-12T19:45:23.665Z,58.69
2022-08-12T19:47:46.854Z,58.62
2022-08-12T19:49:55.112Z,58.96
2022-08-12T19:51:57.896Z,58.98
2022-08-12T19:54:01.619Z,58.70
2022-08-12T19:56:05.312Z,58.51
2022-08-12T19:58:18.266Z,58.59
2022-08-12T20:00:22.555Z,59.00
2022-08-12T20:02:33.095Z,58.88
2022-08-12T20:04:40.240Z,58.85
2022-08-12T20:06:51.436Z,58.94
2022-08-12T20:08:57.133Z,58.86
2022-08-12T20:12:11.455Z,58.62
2022-08-12T20:13:27.012Z,58.61
2022-08-12T20:15:44.985Z,58.68
2022-08-12T20:17:50.997Z,58.88
2022-08-12T20:20:17.306Z,58.69
2022-08-12T20:22:23.897Z,59.18
2022-08-12T20:24:37.818Z,59.66
2022-08-12T20:26:44.223Z,60.16
2022-08-12T20:28:53.526Z,60.77
2022-08-12T20:31:00.011Z,61.09
2022-08-12T20:33:06.822Z,61.45
2022-08-12T20:35:24.346Z,61.61
2022-08-12T20:38:06.865Z,62.14
2022-08-12T20:39:56.490Z,62.14
2022-08-12T20:42:07.351Z,62.36
2022-08-12T20:44:16.866Z,62.48
2022-08-12T20:46:25.614Z,62.90
2022-08-12T20:48:30.591Z,62.86
2022-08-12T20:50:36.930Z,63.30
2022-08-12T20:52:40.318Z,63.28
2022-08-12T20:54:51.328Z,63.68
2022-08-12T20:56:54.200Z,63.86
2022-08-12T20:58:58.098Z,63.47
2022-08-12T21:01:02.396Z,63.84
2022-08-12T21:03:24.546Z,64.11
2022-08-12T21:06:12.299Z,64.27
2022-08-12T21:08:11.900Z,64.40
2022-08-12T21:10:14.876Z,64.49
2022-08-12T21:12:30.924Z,64.58
2022-08-12T21:14:53.541Z,64.64
2022-08-12T21:17:01.117Z,64.74
2022-08-12T21:19:08.006Z,64.80
2022-08-12T21:21:23.227Z,64.92
2022-08-12T21:23:30.796Z,64.90
2022-08-12T21:25:45.369Z,65.65
2022-08-12T21:27:57.862Z,65.74
2022-08-12T21:30:06.557Z,65.75
2022-08-12T21:32:39.826Z,65.84
2022-08-12T21:34:34.377Z,66.26
2022-08-12T21:36:48.202Z,66.18
2022-08-12T21:39:01.593Z,66.59
2022-08-12T21:41:23.311Z,66.33
2022-08-12T21:43:25.964Z,66.68
2022-08-12T21:45:47.858Z,67.34
2022-08-12T21:48:10.166Z,67.91
2022-08-12T21:50:15.572Z,68.14
2022-08-12T21:52:18.151Z,68.56
2022-08-12T21:54:32.808Z,68.86
2022-08-12T21:56:35.479Z,69.09
2022-08-12T21:58:39.537Z,68.85
2022-08-12T22:00:42.296Z,69.32
2022-08-12T22:03:07.911Z,69.35
2022-08-12T22:05:29.113Z,69.73
2022-08-12T22:07:46.285Z,70.19
2022-08-12T22:09:57.216Z,70.46
2022-08-12T22:12:21.953Z,70.49
2022-08-12T22:14:26.852Z,70.50
2022-08-12T22:16:31.105Z,70.48
2022-08-12T22:18:50.595Z,70.42
2022-08-12T22:20:56.831Z,70.19
2022-08-12T22:23:02.210Z,70.05
2022-08-12T22:25:05.914Z,70.04
2022-08-12T22:27:32.047Z,70.02
2022-08-12T22:29:51.038Z,69.97
2022-08-12T22:31:54.790Z,69.87
2022-08-12T22:34:02.766Z,70.03
2022-08-12T22:36:06.967Z,70.08
2022-08-12T22:38:14.369Z,70.00
2022-08-12T22:40:20.086Z,69.83
2022-08-12T22:42:41.349Z,69.99
2022-08-12T22:45:02.540Z,69.82
2022-08-12T22:47:53.953Z,69.88
2022-08-12T22:49:53.620Z,69.87
2022-08-12T22:52:08.323Z,69.79
2022-08-12T22:54:35.468Z,70.09
2022-08-12T22:56:33.980Z,69.95
2022-08-12T22:58:40.654Z,69.70
2022-08-12T23:00:48.533Z,69.71
2022-08-12T23:03:02.886Z,69.77
2022-08-12T23:05:10.542Z,69.65
2022-08-12T23:07:13.349Z,69.62
2022-08-12T23:09:17.668Z,69.32
2022-08-12T23:11:33.868Z,69.21
2022-08-12T23:13:55.043Z,69.10
2022-08-12T23:16:00.689Z,69.13
2022-08-12T23:18:03.792Z,69.05
2022-08-12T23:20:06.963Z,68.79
2022-08-12T23:22:36.574Z,68.71
2022-08-12T23:24:37.012Z,68.62
2022-08-12T23:26:59.709Z,68.67
2022-08-12T23:29:29.330Z,68.64
2022-08-12T23:32:02.834Z,68.82
2022-08-12T23:34:00.856Z,69.05
2022-08-12T23:36:04.911Z,69.13
2022-08-12T23:38:10.591Z,69.14
2022-08-12T23:40:32.908Z,69.03
2022-08-12T23:42:35.646Z,69.08
2022-08-12T23:44:40.244Z,69.19
2022-08-12T23:46:43.253Z,69.30
2022-08-12T23:48:53.201Z,69.15
2022-08-12T23:51:21.696Z,69.00
2022-08-12T23:53:32.430Z,68.96
2022-08-12T23:55:40.707Z,69.01
2022-08-12T23:58:17.122Z,69.22
